sensor_id;sensor_type;location;lat;lon;timestamp;P1;durP1;ratioP1;P2;durP2;ratioP2
59458;SDS011;45269;43.568;22.244;2022-09-09T00:01:04;13.00;;;11.77;;
59458;SDS011;45269;43.568;22.244;2022-09-09T00:03:42;11.75;;;10.73;;
59458;SDS011;45269;43.568;22.244;2022-09-09T00:06:14;11.45;;;10.45;;
59458;SDS011;45269;43.568;22.244;2022-09-09T00:11:12;12.10;;;10.85;;
59458;SDS011;45269;43.568;22.244;2022-09-09T00:13:43;12.02;;;10.93;;
59458;SDS011;45269;43.568;22.244;2022-09-09T00:19:04;11.77;;;10.68;;
59458;SDS011;45269;43.568;22.244;2022-09-09T00:21:33;12.65;;;10.63;;
59458;SDS011;45269;43.568;22.244;2022-09-09T00:24:00;11.63;;;10.52;;
59458;SDS011;45269;43.568;22.244;2022-09-09T00:26:38;11.48;;;10.30;;
59458;SDS011;45269;43.568;22.244;2022-09-09T00:29:10;11.90;;;10.73;;
59458;SDS011;45269;43.568;22.244;2022-09-09T00:31:38;11.45;;;10.55;;
59458;SDS011;45269;43.568;22.244;2022-09-09T00:34:25;12.00;;;10.82;;
59458;SDS011;45269;43.568;22.244;2022-09-09T00:36:50;11.10;;;10.00;;
59458;SDS011;45269;43.568;22.244;2022-09-09T00:39:23;12.85;;;11.70;;
59458;SDS011;45269;43.568;22.244;2022-09-09T00:44:30;11.82;;;10.75;;
59458;SDS011;45269;43.568;22.244;2022-09-09T00:54:33;12.00;;;10.85;;
59458;SDS011;45269;43.568;22.244;2022-09-09T00:59:46;12.00;;;10.85;;
59458;SDS011;45269;43.568;22.244;2022-09-09T01:02:25;11.10;;;10.20;;
59458;SDS011;45269;43.568;22.244;2022-09-09T01:04:53;12.00;;;10.85;;
59458;SDS011;45269;43.568;22.244;2022-09-09T01:07:19;11.95;;;10.85;;
59458;SDS011;45269;43.568;22.244;2022-09-09T01:09:50;12.43;;;10.90;;
59458;SDS011;45269;43.568;22.244;2022-09-09T01:15:01;12.40;;;11.02;;
59458;SDS011;45269;43.568;22.244;2022-09-09T01:17:39;12.57;;;11.43;;
59458;SDS011;45269;43.568;22.244;2022-09-09T01:20:17;12.00;;;10.85;;
59458;SDS011;45269;43.568;22.244;2022-09-09T01:27:43;12.55;;;11.55;;
59458;SDS011;45269;43.568;22.244;2022-09-09T01:30:14;12.00;;;10.93;;
59458;SDS011;45269;43.568;22.244;2022-09-09T01:35:07;11.88;;;10.77;;
59458;SDS011;45269;43.568;22.244;2022-09-09T01:37:34;13.18;;;11.82;;
59458;SDS011;45269;43.568;22.244;2022-09-09T01:40:00;14.63;;;11.98;;
59458;SDS011;45269;43.568;22.244;2022-09-09T01:42:25;12.35;;;11.15;;
59458;SDS011;45269;43.568;22.244;2022-09-09T01:44:50;17.40;;;11.05;;
59458;SDS011;45269;43.568;22.244;2022-09-09T01:47:16;13.38;;;11.90;;
59458;SDS011;45269;43.568;22.244;2022-09-09T01:49:42;12.60;;;11.32;;
59458;SDS011;45269;43.568;22.244;2022-09-09T01:52:07;12.48;;;11.32;;
59458;SDS011;45269;43.568;22.244;2022-09-09T01:54:33;12.25;;;11.05;;
59458;SDS011;45269;43.568;22.244;2022-09-09T01:57:06;12.45;;;11.35;;
59458;SDS011;45269;43.568;22.244;2022-09-09T01:59:44;12.45;;;11.23;;
59458;SDS011;45269;43.568;22.244;2022-09-09T02:02:13;12.00;;;11.02;;
59458;SDS011;45269;43.568;22.244;2022-09-09T02:04:47;12.43;;;11.10;;
59458;SDS011;45269;43.568;22.244;2022-09-09T02:07:19;12.75;;;11.57;;
59458;SDS011;45269;43.568;22.244;2022-09-09T02:09:49;12.82;;;11.52;;
59458;SDS011;45269;43.568;22.244;2022-09-09T02:12:16;18.45;;;11.50;;
59458;SDS011;45269;43.568;22.244;2022-09-09T02:14:55;12.70;;;11.40;;
59458;SDS011;45269;43.568;22.244;2022-09-09T02:17:28;12.77;;;11.50;;
59458;SDS011;45269;43.568;22.244;2022-09-09T02:19:57;12.15;;;11.05;;
59458;SDS011;45269;43.568;22.244;2022-09-09T02:22:25;13.32;;;12.23;;
59458;SDS011;45269;43.568;22.244;2022-09-09T02:24:51;13.48;;;12.30;;
59458;SDS011;45269;43.568;22.244;2022-09-09T02:27:20;13.07;;;11.97;;
59458;SDS011;45269;43.568;22.244;2022-09-09T02:29:46;13.55;;;12.35;;
59458;SDS011;45269;43.568;22.244;2022-09-09T02:32:14;12.55;;;11.35;;
59458;SDS011;45269;43.568;22.244;2022-09-09T02:34:42;13.45;;;12.05;;
59458;SDS011;45269;43.568;22.244;2022-09-09T02:37:08;12.82;;;11.73;;
59458;SDS011;45269;43.568;22.244;2022-09-09T02:39:34;13.93;;;12.73;;
59458;SDS011;45269;43.568;22.244;2022-09-09T02:42:00;12.93;;;11.65;;
59458;SDS011;45269;43.568;22.244;2022-09-09T02:44:25;13.95;;;12.75;;
59458;SDS011;45269;43.568;22.244;2022-09-09T02:49:39;14.15;;;12.75;;
59458;SDS011;45269;43.568;22.244;2022-09-09T02:52:06;13.10;;;11.88;;
59458;SDS011;45269;43.568;22.244;2022-09-09T02:54:33;13.43;;;12.23;;
59458;SDS011;45269;43.568;22.244;2022-09-09T02:57:04;13.32;;;11.88;;
59458;SDS011;45269;43.568;22.244;2022-09-09T02:59:31;13.10;;;11.80;;
59458;SDS011;45269;43.568;22.244;2022-09-09T03:01:57;12.52;;;11.40;;
59458;SDS011;45269;43.568;22.244;2022-09-09T03:04:22;12.60;;;11.38;;
59458;SDS011;45269;43.568;22.244;2022-09-09T03:06:49;12.68;;;11.45;;
59458;SDS011;45269;43.568;22.244;2022-09-09T03:09:14;12.35;;;11.35;;
59458;SDS011;45269;43.568;22.244;2022-09-09T03:11:40;13.57;;;12.43;;
59458;SDS011;45269;43.568;22.244;2022-09-09T03:14:05;13.18;;;12.02;;
59458;SDS011;45269;43.568;22.244;2022-09-09T03:16:31;13.82;;;12.55;;
59458;SDS011;45269;43.568;22.244;2022-09-09T03:18:58;13.35;;;12.25;;
59458;SDS011;45269;43.568;22.244;2022-09-09T03:21:23;13.15;;;12.05;;
59458;SDS011;45269;43.568;22.244;2022-09-09T03:23:50;13.90;;;12.65;;
59458;SDS011;45269;43.568;22.244;2022-09-09T03:26:15;12.80;;;11.60;;
59458;SDS011;45269;43.568;22.244;2022-09-09T03:28:41;13.60;;;12.43;;
59458;SDS011;45269;43.568;22.244;2022-09-09T03:31:07;12.45;;;11.45;;
59458;SDS011;45269;43.568;22.244;2022-09-09T03:33:35;12.90;;;11.60;;
59458;SDS011;45269;43.568;22.244;2022-09-09T03:36:02;14.00;;;12.65;;
59458;SDS011;45269;43.568;22.244;2022-09-09T03:38:27;13.93;;;12.65;;
59458;SDS011;45269;43.568;22.244;2022-09-09T03:40:54;12.93;;;11.73;;
59458;SDS011;45269;43.568;22.244;2022-09-09T03:43:21;13.55;;;12.25;;
59458;SDS011;45269;43.568;22.244;2022-09-09T03:45:46;13.73;;;12.35;;
59458;SDS011;45269;43.568;22.244;2022-09-09T03:48:18;14.38;;;12.88;;
59458;SDS011;45269;43.568;22.244;2022-09-09T03:50:47;13.67;;;11.27;;
59458;SDS011;45269;43.568;22.244;2022-09-09T03:53:13;13.73;;;12.20;;
59458;SDS011;45269;43.568;22.244;2022-09-09T03:55:39;13.88;;;12.52;;
59458;SDS011;45269;43.568;22.244;2022-09-09T03:58:06;15.13;;;12.45;;
59458;SDS011;45269;43.568;22.244;2022-09-09T04:00:32;14.95;;;13.27;;
59458;SDS011;45269;43.568;22.244;2022-09-09T04:02:57;14.48;;;13.15;;
59458;SDS011;45269;43.568;22.244;2022-09-09T04:05:22;14.32;;;13.13;;
59458;SDS011;45269;43.568;22.244;2022-09-09T04:07:48;14.18;;;12.77;;
59458;SDS011;45269;43.568;22.244;2022-09-09T04:10:13;14.43;;;13.02;;
59458;SDS011;45269;43.568;22.244;2022-09-09T04:12:40;14.57;;;13.05;;
59458;SDS011;45269;43.568;22.244;2022-09-09T04:15:06;13.75;;;12.35;;
59458;SDS011;45269;43.568;22.244;2022-09-09T04:17:31;13.75;;;12.60;;
59458;SDS011;45269;43.568;22.244;2022-09-09T04:19:57;14.13;;;12.77;;
59458;SDS011;45269;43.568;22.244;2022-09-09T04:22:23;14.23;;;13.00;;
59458;SDS011;45269;43.568;22.244;2022-09-09T04:24:48;14.13;;;12.68;;
59458;SDS011;45269;43.568;22.244;2022-09-09T04:27:14;13.93;;;12.40;;
59458;SDS011;45269;43.568;22.244;2022-09-09T04:29:39;14.32;;;13.10;;
59458;SDS011;45269;43.568;22.244;2022-09-09T04:32:04;13.82;;;12.52;;
59458;SDS011;45269;43.568;22.244;2022-09-09T04:34:30;14.65;;;13.18;;
59458;SDS011;45269;43.568;22.244;2022-09-09T04:36:56;14.82;;;13.23;;
59458;SDS011;45269;43.568;22.244;2022-09-09T04:39:22;13.93;;;12.30;;
59458;SDS011;45269;43.568;22.244;2022-09-09T04:41:47;16.88;;;12.65;;
59458;SDS011;45269;43.568;22.244;2022-09-09T04:44:13;14.18;;;12.73;;
59458;SDS011;45269;43.568;22.244;2022-09-09T04:46:38;14.20;;;12.65;;
59458;SDS011;45269;43.568;22.244;2022-09-09T04:49:03;15.02;;;13.57;;
59458;SDS011;45269;43.568;22.244;2022-09-09T04:51:29;24.63;;;21.13;;
59458;SDS011;45269;43.568;22.244;2022-09-09T04:53:56;25.08;;;19.60;;
59458;SDS011;45269;43.568;22.244;2022-09-09T04:56:21;25.80;;;20.75;;
59458;SDS011;45269;43.568;22.244;2022-09-09T04:58:47;15.02;;;13.55;;
59458;SDS011;45269;43.568;22.244;2022-09-09T05:01:13;17.92;;;16.13;;
59458;SDS011;45269;43.568;22.244;2022-09-09T05:03:39;13.32;;;11.98;;
59458;SDS011;45269;43.568;22.244;2022-09-09T05:06:08;14.07;;;12.77;;
59458;SDS011;45269;43.568;22.244;2022-09-09T05:08:35;14.18;;;12.80;;
59458;SDS011;45269;43.568;22.244;2022-09-09T05:11:00;15.02;;;13.05;;
59458;SDS011;45269;43.568;22.244;2022-09-09T05:13:26;15.32;;;13.55;;
59458;SDS011;45269;43.568;22.244;2022-09-09T05:15:52;15.45;;;12.85;;
59458;SDS011;45269;43.568;22.244;2022-09-09T05:18:18;14.75;;;13.38;;
59458;SDS011;45269;43.568;22.244;2022-09-09T05:20:43;15.80;;;13.20;;
59458;SDS011;45269;43.568;22.244;2022-09-09T05:23:08;14.52;;;13.02;;
59458;SDS011;45269;43.568;22.244;2022-09-09T05:25:36;14.75;;;13.48;;
59458;SDS011;45269;43.568;22.244;2022-09-09T05:28:01;12.32;;;10.95;;
59458;SDS011;45269;43.568;22.244;2022-09-09T05:30:27;13.65;;;12.38;;
59458;SDS011;45269;43.568;22.244;2022-09-09T05:32:52;13.48;;;12.20;;
59458;SDS011;45269;43.568;22.244;2022-09-09T05:35:20;12.65;;;11.55;;
59458;SDS011;45269;43.568;22.244;2022-09-09T05:37:46;12.77;;;11.57;;
59458;SDS011;45269;43.568;22.244;2022-09-09T05:40:11;12.95;;;11.57;;
59458;SDS011;45269;43.568;22.244;2022-09-09T05:42:37;12.77;;;11.48;;
59458;SDS011;45269;43.568;22.244;2022-09-09T05:45:04;11.77;;;10.77;;
59458;SDS011;45269;43.568;22.244;2022-09-09T05:47:29;13.05;;;11.77;;
59458;SDS011;45269;43.568;22.244;2022-09-09T05:49:55;12.15;;;10.95;;
59458;SDS011;45269;43.568;22.244;2022-09-09T05:52:20;12.43;;;11.23;;
59458;SDS011;45269;43.568;22.244;2022-09-09T05:54:45;13.95;;;10.73;;
59458;SDS011;45269;43.568;22.244;2022-09-09T05:57:11;13.45;;;10.70;;
59458;SDS011;45269;43.568;22.244;2022-09-09T05:59:36;16.65;;;14.73;;
59458;SDS011;45269;43.568;22.244;2022-09-09T06:02:02;23.77;;;21.48;;
59458;SDS011;45269;43.568;22.244;2022-09-09T06:04:27;21.45;;;17.77;;
59458;SDS011;45269;43.568;22.244;2022-09-09T06:06:53;20.95;;;17.90;;
59458;SDS011;45269;43.568;22.244;2022-09-09T06:09:18;19.88;;;17.83;;
59458;SDS011;45269;43.568;22.244;2022-09-09T06:11:43;19.90;;;16.55;;
59458;SDS011;45269;43.568;22.244;2022-09-09T06:14:09;19.80;;;16.45;;
59458;SDS011;45269;43.568;22.244;2022-09-09T06:16:34;15.65;;;13.30;;
59458;SDS011;45269;43.568;22.244;2022-09-09T06:19:00;14.13;;;12.55;;
59458;SDS011;45269;43.568;22.244;2022-09-09T06:21:29;19.10;;;14.00;;
59458;SDS011;45269;43.568;22.244;2022-09-09T06:23:55;14.68;;;13.23;;
59458;SDS011;45269;43.568;22.244;2022-09-09T06:26:25;18.65;;;15.68;;
59458;SDS011;45269;43.568;22.244;2022-09-09T06:28:52;15.32;;;13.93;;
59458;SDS011;45269;43.568;22.244;2022-09-09T06:31:18;15.77;;;14.45;;
59458;SDS011;45269;43.568;22.244;2022-09-09T06:33:47;18.50;;;16.65;;
59458;SDS011;45269;43.568;22.244;2022-09-09T06:38:38;26.05;;;23.48;;
59458;SDS011;45269;43.568;22.244;2022-09-09T06:41:03;19.33;;;17.30;;
59458;SDS011;45269;43.568;22.244;2022-09-09T06:43:30;27.35;;;24.73;;
59458;SDS011;45269;43.568;22.244;2022-09-09T06:45:57;33.80;;;30.27;;
59458;SDS011;45269;43.568;22.244;2022-09-09T06:48:23;28.73;;;25.48;;
59458;SDS011;45269;43.568;22.244;2022-09-09T06:50:48;24.25;;;21.48;;
59458;SDS011;45269;43.568;22.244;2022-09-09T06:53:17;18.75;;;16.85;;
59458;SDS011;45269;43.568;22.244;2022-09-09T06:58:09;20.70;;;12.50;;
59458;SDS011;45269;43.568;22.244;2022-09-09T07:00:35;14.60;;;12.85;;
59458;SDS011;45269;43.568;22.244;2022-09-09T07:03:02;17.40;;;12.95;;
59458;SDS011;45269;43.568;22.244;2022-09-09T07:05:28;15.20;;;12.30;;
59458;SDS011;45269;43.568;22.244;2022-09-09T07:07:53;18.55;;;12.77;;
59458;SDS011;45269;43.568;22.244;2022-09-09T07:10:18;16.40;;;13.38;;
59458;SDS011;45269;43.568;22.244;2022-09-09T07:12:44;16.85;;;13.52;;
59458;SDS011;45269;43.568;22.244;2022-09-09T07:15:09;16.88;;;12.90;;
59458;SDS011;45269;43.568;22.244;2022-09-09T07:17:35;16.60;;;14.80;;
59458;SDS011;45269;43.568;22.244;2022-09-09T07:20:00;18.08;;;14.35;;
59458;SDS011;45269;43.568;22.244;2022-09-09T07:22:27;21.25;;;15.38;;
59458;SDS011;45269;43.568;22.244;2022-09-09T07:24:53;18.42;;;13.18;;
59458;SDS011;45269;43.568;22.244;2022-09-09T07:27:18;13.70;;;12.35;;
59458;SDS011;45269;43.568;22.244;2022-09-09T07:29:43;15.30;;;13.20;;
59458;SDS011;45269;43.568;22.244;2022-09-09T07:32:10;17.90;;;13.98;;
59458;SDS011;45269;43.568;22.244;2022-09-09T07:34:36;16.00;;;14.30;;
59458;SDS011;45269;43.568;22.244;2022-09-09T07:37:01;14.75;;;12.50;;
59458;SDS011;45269;43.568;22.244;2022-09-09T07:39:26;13.00;;;11.75;;
59458;SDS011;45269;43.568;22.244;2022-09-09T07:41:52;13.27;;;11.27;;
59458;SDS011;45269;43.568;22.244;2022-09-09T07:44:20;12.50;;;11.07;;
59458;SDS011;45269;43.568;22.244;2022-09-09T07:46:49;12.98;;;11.40;;
59458;SDS011;45269;43.568;22.244;2022-09-09T07:49:15;12.27;;;10.95;;
59458;SDS011;45269;43.568;22.244;2022-09-09T07:51:42;12.00;;;10.75;;
59458;SDS011;45269;43.568;22.244;2022-09-09T07:54:09;11.45;;;9.50;;
59458;SDS011;45269;43.568;22.244;2022-09-09T07:56:35;11.05;;;10.05;;
59458;SDS011;45269;43.568;22.244;2022-09-09T07:59:01;13.15;;;10.43;;
59458;SDS011;45269;43.568;22.244;2022-09-09T08:01:30;10.93;;;9.52;;
59458;SDS011;45269;43.568;22.244;2022-09-09T08:06:21;10.47;;;9.27;;
59458;SDS011;45269;43.568;22.244;2022-09-09T08:08:49;9.70;;;8.70;;
59458;SDS011;45269;43.568;22.244;2022-09-09T08:11:15;15.48;;;13.88;;
59458;SDS011;45269;43.568;22.244;2022-09-09T08:13:41;12.57;;;10.68;;
59458;SDS011;45269;43.568;22.244;2022-09-09T08:18:35;10.55;;;9.48;;
59458;SDS011;45269;43.568;22.244;2022-09-09T08:21:14;10.18;;;8.68;;
59458;SDS011;45269;43.568;22.244;2022-09-09T08:23:40;9.95;;;8.50;;
59458;SDS011;45269;43.568;22.244;2022-09-09T08:26:19;11.02;;;8.77;;
59458;SDS011;45269;43.568;22.244;2022-09-09T08:28:46;9.57;;;8.68;;
59458;SDS011;45269;43.568;22.244;2022-09-09T08:31:16;8.88;;;7.97;;
59458;SDS011;45269;43.568;22.244;2022-09-09T08:33:42;8.65;;;7.78;;
59458;SDS011;45269;43.568;22.244;2022-09-09T08:36:10;8.80;;;7.90;;
59458;SDS011;45269;43.568;22.244;2022-09-09T08:38:36;8.70;;;8.00;;
59458;SDS011;45269;43.568;22.244;2022-09-09T08:43:46;8.30;;;7.47;;
59458;SDS011;45269;43.568;22.244;2022-09-09T08:46:18;8.20;;;7.38;;
59458;SDS011;45269;43.568;22.244;2022-09-09T08:48:56;8.18;;;7.35;;
59458;SDS011;45269;43.568;22.244;2022-09-09T08:51:27;8.25;;;7.43;;
59458;SDS011;45269;43.568;22.244;2022-09-09T08:53:54;8.50;;;7.10;;
59458;SDS011;45269;43.568;22.244;2022-09-09T08:56:24;9.25;;;7.55;;
59458;SDS011;45269;43.568;22.244;2022-09-09T08:58:54;8.35;;;7.30;;
59458;SDS011;45269;43.568;22.244;2022-09-09T09:06:50;9.32;;;7.85;;
59458;SDS011;45269;43.568;22.244;2022-09-09T09:11:51;8.75;;;7.15;;
59458;SDS011;45269;43.568;22.244;2022-09-09T09:14:22;8.60;;;7.90;;
59458;SDS011;45269;43.568;22.244;2022-09-09T09:16:53;10.60;;;8.27;;
59458;SDS011;45269;43.568;22.244;2022-09-09T09:19:19;8.90;;;8.10;;
59458;SDS011;45269;43.568;22.244;2022-09-09T09:22:10;9.23;;;8.20;;
59458;SDS011;45269;43.568;22.244;2022-09-09T09:27:12;12.05;;;8.27;;
59458;SDS011;45269;43.568;22.244;2022-09-09T09:29:38;9.88;;;8.88;;
59458;SDS011;45269;43.568;22.244;2022-09-09T09:32:05;8.77;;;7.57;;
59458;SDS011;45269;43.568;22.244;2022-09-09T09:34:31;9.13;;;7.32;;
59458;SDS011;45269;43.568;22.244;2022-09-09T09:36:56;8.20;;;7.30;;
59458;SDS011;45269;43.568;22.244;2022-09-09T09:39:32;7.60;;;6.70;;
59458;SDS011;45269;43.568;22.244;2022-09-09T09:42:13;15.90;;;7.65;;
59458;SDS011;45269;43.568;22.244;2022-09-09T09:44:39;9.70;;;7.00;;
59458;SDS011;45269;43.568;22.244;2022-09-09T09:47:15;8.35;;;7.25;;
59458;SDS011;45269;43.568;22.244;2022-09-09T09:49:59;8.00;;;7.20;;
59458;SDS011;45269;43.568;22.244;2022-09-09T09:52:30;10.48;;;7.50;;
59458;SDS011;45269;43.568;22.244;2022-09-09T09:54:56;9.25;;;6.97;;
59458;SDS011;45269;43.568;22.244;2022-09-09T09:57:29;12.48;;;7.05;;
59458;SDS011;45269;43.568;22.244;2022-09-09T10:02:36;11.68;;;7.15;;
59458;SDS011;45269;43.568;22.244;2022-09-09T10:05:03;8.68;;;7.32;;
59458;SDS011;45269;43.568;22.244;2022-09-09T10:07:29;13.88;;;8.30;;
59458;SDS011;45269;43.568;22.244;2022-09-09T10:09:55;10.77;;;7.20;;
59458;SDS011;45269;43.568;22.244;2022-09-09T10:12:33;10.65;;;6.93;;
59458;SDS011;45269;43.568;22.244;2022-09-09T10:15:11;8.73;;;7.20;;
59458;SDS011;45269;43.568;22.244;2022-09-09T10:22:35;9.85;;;7.38;;
59458;SDS011;45269;43.568;22.244;2022-09-09T10:25:21;10.52;;;7.93;;
59458;SDS011;45269;43.568;22.244;2022-09-09T10:32:45;12.60;;;7.95;;
59458;SDS011;45269;43.568;22.244;2022-09-09T10:42:55;7.75;;;6.82;;
59458;SDS011;45269;43.568;22.244;2022-09-09T10:56:08;9.02;;;7.85;;
59458;SDS011;45269;43.568;22.244;2022-09-09T11:01:10;8.30;;;7.47;;
59458;SDS011;45269;43.568;22.244;2022-09-09T11:03:39;7.68;;;7.03;;
59458;SDS011;45269;43.568;22.244;2022-09-09T11:06:06;7.88;;;7.10;;
59458;SDS011;45269;43.568;22.244;2022-09-09T11:08:34;7.93;;;7.20;;
59458;SDS011;45269;43.568;22.244;2022-09-09T11:16:17;8.20;;;7.40;;
59458;SDS011;45269;43.568;22.244;2022-09-09T11:18:44;11.00;;;6.88;;
59458;SDS011;45269;43.568;22.244;2022-09-09T11:21:53;7.75;;;6.93;;
59458;SDS011;45269;43.568;22.244;2022-09-09T11:24:02;8.75;;;7.65;;
59458;SDS011;45269;43.568;22.244;2022-09-09T11:26:33;8.50;;;7.00;;
59458;SDS011;45269;43.568;22.244;2022-09-09T11:31:43;8.88;;;7.60;;
59458;SDS011;45269;43.568;22.244;2022-09-09T11:37:03;7.70;;;6.90;;
59458;SDS011;45269;43.568;22.244;2022-09-09T11:44:38;6.75;;;6.03;;
59458;SDS011;45269;43.568;22.244;2022-09-09T11:47:15;9.40;;;6.28;;
59458;SDS011;45269;43.568;22.244;2022-09-09T11:49:42;7.50;;;6.20;;
59458;SDS011;45269;43.568;22.244;2022-09-09T11:54:50;6.88;;;5.57;;
59458;SDS011;45269;43.568;22.244;2022-09-09T11:57:26;8.85;;;5.65;;
59458;SDS011;45269;43.568;22.244;2022-09-09T11:59:55;8.30;;;6.60;;
59458;SDS011;45269;43.568;22.244;2022-09-09T12:02:25;8.88;;;6.13;;
59458;SDS011;45269;43.568;22.244;2022-09-09T12:05:02;6.93;;;5.50;;
59458;SDS011;45269;43.568;22.244;2022-09-09T12:07:34;7.88;;;6.13;;
59458;SDS011;45269;43.568;22.244;2022-09-09T12:10:03;11.68;;;6.38;;
59458;SDS011;45269;43.568;22.244;2022-09-09T12:12:36;7.00;;;5.97;;
59458;SDS011;45269;43.568;22.244;2022-09-09T12:18:16;15.80;;;13.88;;
59458;SDS011;45269;43.568;22.244;2022-09-09T12:20:35;9.68;;;7.32;;
59458;SDS011;45269;43.568;22.244;2022-09-09T12:23:08;10.35;;;6.45;;
59458;SDS011;45269;43.568;22.244;2022-09-09T12:25:47;10.27;;;5.53;;
59458;SDS011;45269;43.568;22.244;2022-09-09T12:30:41;11.88;;;7.53;;
59458;SDS011;45269;43.568;22.244;2022-09-09T12:33:11;8.10;;;6.10;;
59458;SDS011;45269;43.568;22.244;2022-09-09T12:35:38;7.82;;;5.70;;
59458;SDS011;45269;43.568;22.244;2022-09-09T12:38:04;10.50;;;6.07;;
59458;SDS011;45269;43.568;22.244;2022-09-09T12:40:33;10.63;;;6.20;;
59458;SDS011;45269;43.568;22.244;2022-09-09T12:43:00;6.60;;;5.25;;
59458;SDS011;45269;43.568;22.244;2022-09-09T12:45:27;7.93;;;6.00;;
59458;SDS011;45269;43.568;22.244;2022-09-09T12:47:57;8.70;;;5.45;;
59458;SDS011;45269;43.568;22.244;2022-09-09T12:50:26;8.65;;;5.95;;
59458;SDS011;45269;43.568;22.244;2022-09-09T12:52:57;10.80;;;5.90;;
59458;SDS011;45269;43.568;22.244;2022-09-09T12:55:34;14.57;;;6.82;;
59458;SDS011;45269;43.568;22.244;2022-09-09T12:58:00;12.88;;;6.35;;
59458;SDS011;45269;43.568;22.244;2022-09-09T13:00:29;16.35;;;5.45;;
59458;SDS011;45269;43.568;22.244;2022-09-09T13:02:59;9.77;;;5.88;;
59458;SDS011;45269;43.568;22.244;2022-09-09T13:05:27;12.60;;;6.85;;
59458;SDS011;45269;43.568;22.244;2022-09-09T13:08:02;10.95;;;4.95;;
59458;SDS011;45269;43.568;22.244;2022-09-09T13:10:28;14.20;;;8.10;;
59458;SDS011;45269;43.568;22.244;2022-09-09T13:12:54;13.00;;;7.00;;
59458;SDS011;45269;43.568;22.244;2022-09-09T13:15:21;10.55;;;6.28;;
59458;SDS011;45269;43.568;22.244;2022-09-09T13:17:54;12.30;;;6.22;;
59458;SDS011;45269;43.568;22.244;2022-09-09T13:20:20;10.13;;;5.38;;
59458;SDS011;45269;43.568;22.244;2022-09-09T13:22:47;12.05;;;5.75;;
59458;SDS011;45269;43.568;22.244;2022-09-09T13:25:17;9.80;;;5.10;;
59458;SDS011;45269;43.568;22.244;2022-09-09T13:27:59;11.07;;;5.15;;
59458;SDS011;45269;43.568;22.244;2022-09-09T13:33:05;9.70;;;4.72;;
59458;SDS011;45269;43.568;22.244;2022-09-09T13:35:31;14.70;;;5.05;;
59458;SDS011;45269;43.568;22.244;2022-09-09T13:37:57;12.27;;;4.90;;
59458;SDS011;45269;43.568;22.244;2022-09-09T13:40:23;11.38;;;4.88;;
59458;SDS011;45269;43.568;22.244;2022-09-09T13:42:53;10.68;;;5.13;;
59458;SDS011;45269;43.568;22.244;2022-09-09T13:45:20;10.43;;;5.03;;
59458;SDS011;45269;43.568;22.244;2022-09-09T13:47:46;12.55;;;4.57;;
59458;SDS011;45269;43.568;22.244;2022-09-09T13:50:23;8.77;;;4.65;;
59458;SDS011;45269;43.568;22.244;2022-09-09T13:52:49;11.13;;;4.97;;
59458;SDS011;45269;43.568;22.244;2022-09-09T13:55:16;11.30;;;4.88;;
59458;SDS011;45269;43.568;22.244;2022-09-09T13:57:55;11.25;;;5.13;;
59458;SDS011;45269;43.568;22.244;2022-09-09T14:00:21;9.43;;;4.45;;
59458;SDS011;45269;43.568;22.244;2022-09-09T14:02:50;12.18;;;4.97;;
59458;SDS011;45269;43.568;22.244;2022-09-09T14:05:16;10.77;;;4.20;;
59458;SDS011;45269;43.568;22.244;2022-09-09T14:07:42;8.02;;;4.40;;
59458;SDS011;45269;43.568;22.244;2022-09-09T14:10:09;8.60;;;4.10;;
59458;SDS011;45269;43.568;22.244;2022-09-09T14:12:34;8.52;;;4.25;;
59458;SDS011;45269;43.568;22.244;2022-09-09T14:15:01;9.43;;;4.97;;
59458;SDS011;45269;43.568;22.244;2022-09-09T14:17:26;9.73;;;5.15;;
59458;SDS011;45269;43.568;22.244;2022-09-09T14:19:54;10.65;;;4.55;;
59458;SDS011;45269;43.568;22.244;2022-09-09T14:22:20;7.28;;;4.35;;
59458;SDS011;45269;43.568;22.244;2022-09-09T14:24:45;9.10;;;4.53;;
59458;SDS011;45269;43.568;22.244;2022-09-09T14:27:11;6.20;;;4.53;;
59458;SDS011;45269;43.568;22.244;2022-09-09T14:29:36;5.85;;;4.45;;
59458;SDS011;45269;43.568;22.244;2022-09-09T14:32:02;5.50;;;3.85;;
59458;SDS011;45269;43.568;22.244;2022-09-09T14:34:27;8.38;;;4.45;;
59458;SDS011;45269;43.568;22.244;2022-09-09T14:36:52;6.25;;;4.18;;
59458;SDS011;45269;43.568;22.244;2022-09-09T14:39:18;9.80;;;4.90;;
59458;SDS011;45269;43.568;22.244;2022-09-09T14:41:43;8.50;;;4.68;;
59458;SDS011;45269;43.568;22.244;2022-09-09T14:44:08;6.60;;;4.20;;
59458;SDS011;45269;43.568;22.244;2022-09-09T14:46:35;6.38;;;4.55;;
59458;SDS011;45269;43.568;22.244;2022-09-09T14:49:00;6.75;;;4.50;;
59458;SDS011;45269;43.568;22.244;2022-09-09T14:51:26;7.00;;;4.90;;
59458;SDS011;45269;43.568;22.244;2022-09-09T14:53:57;6.20;;;4.35;;
59458;SDS011;45269;43.568;22.244;2022-09-09T14:56:24;8.07;;;4.63;;
59458;SDS011;45269;43.568;22.244;2022-09-09T14:58:50;6.35;;;4.47;;
59458;SDS011;45269;43.568;22.244;2022-09-09T15:01:17;7.20;;;4.18;;
59458;SDS011;45269;43.568;22.244;2022-09-09T15:03:43;6.18;;;3.88;;
59458;SDS011;45269;43.568;22.244;2022-09-09T15:06:13;6.82;;;4.05;;
59458;SDS011;45269;43.568;22.244;2022-09-09T15:08:40;6.35;;;4.20;;
59458;SDS011;45269;43.568;22.244;2022-09-09T15:11:06;7.80;;;4.10;;
59458;SDS011;45269;43.568;22.244;2022-09-09T15:13:35;6.68;;;4.40;;
59458;SDS011;45269;43.568;22.244;2022-09-09T15:16:05;8.75;;;5.07;;
59458;SDS011;45269;43.568;22.244;2022-09-09T15:20:58;7.72;;;4.72;;
59458;SDS011;45269;43.568;22.244;2022-09-09T15:23:24;14.98;;;7.85;;
59458;SDS011;45269;43.568;22.244;2022-09-09T15:25:53;10.95;;;5.78;;
59458;SDS011;45269;43.568;22.244;2022-09-09T15:28:19;7.65;;;5.47;;
59458;SDS011;45269;43.568;22.244;2022-09-09T15:30:49;9.05;;;4.80;;
59458;SDS011;45269;43.568;22.244;2022-09-09T15:35:39;6.60;;;4.73;;
59458;SDS011;45269;43.568;22.244;2022-09-09T15:38:05;6.88;;;4.35;;
59458;SDS011;45269;43.568;22.244;2022-09-09T15:40:30;6.80;;;4.55;;
59458;SDS011;45269;43.568;22.244;2022-09-09T15:42:57;10.07;;;4.90;;
59458;SDS011;45269;43.568;22.244;2022-09-09T15:45:23;13.77;;;5.35;;
59458;SDS011;45269;43.568;22.244;2022-09-09T15:47:48;7.90;;;3.97;;
59458;SDS011;45269;43.568;22.244;2022-09-09T15:50:14;9.52;;;4.60;;
59458;SDS011;45269;43.568;22.244;2022-09-09T15:52:39;9.85;;;4.65;;
59458;SDS011;45269;43.568;22.244;2022-09-09T15:55:05;8.15;;;4.40;;
59458;SDS011;45269;43.568;22.244;2022-09-09T15:57:30;16.70;;;5.57;;
59458;SDS011;45269;43.568;22.244;2022-09-09T15:59:55;8.60;;;5.50;;
59458;SDS011;45269;43.568;22.244;2022-09-09T16:02:21;6.35;;;5.10;;
59458;SDS011;45269;43.568;22.244;2022-09-09T16:04:46;8.43;;;5.50;;
59458;SDS011;45269;43.568;22.244;2022-09-09T16:07:12;7.95;;;4.60;;
59458;SDS011;45269;43.568;22.244;2022-09-09T16:09:38;7.30;;;4.70;;
59458;SDS011;45269;43.568;22.244;2022-09-09T16:12:04;10.65;;;5.38;;
59458;SDS011;45269;43.568;22.244;2022-09-09T16:14:31;9.13;;;5.35;;
59458;SDS011;45269;43.568;22.244;2022-09-09T16:16:59;8.13;;;4.65;;
59458;SDS011;45269;43.568;22.244;2022-09-09T16:19:24;6.38;;;4.20;;
59458;SDS011;45269;43.568;22.244;2022-09-09T16:21:50;5.53;;;4.00;;